Time;durP1;ratioP1;P1;durP2;ratioP2;P2;SDS_P1;SDS_P2;PMS_P1;PMS_P2;Temp;Humidity;BMP_temperature;BMP_pressure;BME280_temperature;BME280_humidity;BME280_pressure;Samples;Min_cycle;Max_cycle;Signal;HPM_P1;HPM_P2
2022/09/23 00:00:42;;;;;;;19.08;13.38;;;11.20;99.90;;;;;;5093769;28;20115;-54
2022/09/23 00:03:09;;;;;;;13.50;11.48;;;11.20;99.90;;;;;;5093749;28;20524;-56
2022/09/23 00:05:36;;;;;;;14.98;12.20;;;11.20;99.90;;;;;;5094123;28;20032;-53
2022/09/23 00:08:03;;;;;;;13.82;11.43;;;11.20;99.90;;;;;;5093331;28;20044;-53
2022/09/23 00:10:32;;;;;;;13.15;11.77;;;11.30;99.90;;;;;;5093640;28;20043;-55
2022/09/23 00:12:58;;;;;;;14.75;11.82;;;11.10;99.90;;;;;;5093903;28;20114;-52
2022/09/23 00:15:25;;;;;;;14.07;12.63;;;11.20;99.90;;;;;;5093760;28;20036;-54
2022/09/23 00:17:51;;;;;;;14.30;12.13;;;11.20;99.90;;;;;;5093636;28;20161;-51
2022/09/23 00:20:17;;;;;;;14.52;12.85;;;11.20;99.90;;;;;;5093547;28;20032;-54
2022/09/23 00:22:44;;;;;;;14.25;12.70;;;11.10;99.90;;;;;;5093590;28;20039;-54
2022/09/23 00:25:10;;;;;;;14.00;12.43;;;11.20;99.90;;;;;;5111262;28;20493;-55
2022/09/23 00:27:37;;;;;;;16.75;13.48;;;11.20;99.90;;;;;;5078597;28;20077;-52
2022/09/23 00:30:05;;;;;;;13.93;12.52;;;11.00;99.90;;;;;;5113805;28;20050;-51
2022/09/23 00:32:32;;;;;;;16.55;13.20;;;11.20;99.90;;;;;;5113529;28;20036;-54
2022/09/23 00:34:57;;;;;;;15.00;13.40;;;11.10;99.90;;;;;;5113557;28;20816;-53
2022/09/23 00:37:23;;;;;;;17.95;13.85;;;11.10;99.90;;;;;;5111817;28;20068;-55
2022/09/23 00:39:49;;;;;;;17.02;13.02;;;11.10;99.90;;;;;;5076146;28;20051;-56
2022/09/23 00:42:19;;;;;;;15.65;13.80;;;11.10;99.90;;;;;;5113545;28;20047;-56
2022/09/23 00:44:56;;;;;;;15.80;13.85;;;11.10;99.90;;;;;;5113686;28;20028;-54
2022/09/23 00:47:47;;;;;;;17.08;13.65;;;11.10;99.90;;;;;;5113810;28;20038;-54
2022/09/23 00:50:27;;;;;;;15.45;13.88;;;11.10;99.90;;;;;;5095239;28;20044;-55
2022/09/23 00:52:55;;;;;;;16.88;13.23;;;11.00;99.90;;;;;;5095480;28;20039;-53
2022/09/23 00:57:48;;;;;;;15.55;13.60;;;11.10;99.90;;;;;;5100269;27;20985;-51
2022/09/23 01:00:14;;;;;;;16.77;13.57;;;11.00;99.90;;;;;;5100075;28;20048;-49
2022/09/23 01:02:40;;;;;;;15.88;14.05;;;11.00;99.90;;;;;;5099159;28;20044;-52
2022/09/23 01:05:06;;;;;;;18.10;14.60;;;11.00;99.90;;;;;;5099110;28;20068;-52
2022/09/23 01:07:33;;;;;;;15.95;14.20;;;11.00;99.90;;;;;;5098876;28;20123;-50
2022/09/23 01:10:00;;;;;;;17.05;13.88;;;10.90;99.90;;;;;;5099896;28;20185;-49
2022/09/23 01:13:07;;;;;;;16.60;14.07;;;11.00;99.90;;;;;;5097563;28;20040;-49
2022/09/23 01:15:48;;;;;;;15.85;14.18;;;11.00;99.90;;;;;;5099383;28;20048;-52
2022/09/23 01:18:17;;;;;;;19.07;14.93;;;11.00;99.90;;;;;;5100345;28;20248;-53
2022/09/23 01:21:29;;;;;;;16.73;14.20;;;11.00;99.90;;;;;;5097904;28;20721;-49
2022/09/23 01:24:45;;;;;;;16.70;15.00;;;11.00;99.90;;;;;;5098353;28;20086;-49
2022/09/23 01:27:49;;;;;;;16.67;14.90;;;11.00;99.90;;;;;;5034915;28;20052;-49
2022/09/23 01:30:44;;;;;;;16.65;14.70;;;10.90;99.90;;;;;;4940617;29;20046;-52
2022/09/23 01:33:38;;;;;;;18.00;15.25;;;11.00;99.90;;;;;;5034733;28;20045;-52
2022/09/23 01:36:17;;;;;;;18.42;15.20;;;11.00;99.90;;;;;;5088554;28;20538;-52
2022/09/23 01:39:02;;;;;;;17.83;15.20;;;11.00;99.90;;;;;;5097430;28;20048;-52
2022/09/23 01:41:48;;;;;;;18.05;15.57;;;10.90;99.90;;;;;;5097634;28;20040;-52
2022/09/23 01:44:38;;;;;;;20.50;15.70;;;10.90;99.90;;;;;;5097563;28;20048;-50
2022/09/23 01:47:14;;;;;;;20.15;16.23;;;10.90;99.90;;;;;;5097015;28;20100;-51
2022/09/23 01:49:54;;;;;;;19.02;15.63;;;10.90;99.90;;;;;;5097708;28;20064;-52
2022/09/23 01:52:28;;;;;;;17.83;14.40;;;11.00;99.90;;;;;;5095984;28;20032;-50
2022/09/23 01:55:07;;;;;;;18.13;15.57;;;11.00;99.90;;;;;;5097358;28;20425;-52
2022/09/23 01:57:44;;;;;;;17.55;15.27;;;11.00;99.90;;;;;;5097234;28;20052;-50
2022/09/23 02:00:12;;;;;;;18.77;15.38;;;11.00;99.90;;;;;;5097089;28;20040;-52
2022/09/23 02:02:57;;;;;;;19.50;16.02;;;11.00;99.90;;;;;;5097369;28;20078;-51
2022/09/23 02:05:28;;;;;;;17.60;15.52;;;11.00;99.90;;;;;;5096856;28;20041;-52
2022/09/23 02:07:59;;;;;;;20.75;15.70;;;11.00;99.90;;;;;;5090519;28;20037;-51
2022/09/23 02:10:34;;;;;;;18.10;15.30;;;10.90;99.90;;;;;;5082325;28;20178;-49
2022/09/23 02:13:07;;;;;;;19.25;15.15;;;10.90;99.90;;;;;;5083316;28;20048;-51
2022/09/23 02:15:40;;;;;;;18.38;15.23;;;10.80;99.90;;;;;;5083320;28;20101;-51
2022/09/23 02:18:15;;;;;;;18.92;15.52;;;10.90;99.90;;;;;;5083467;28;20396;-49
2022/09/23 02:20:42;;;;;;;19.60;15.57;;;10.80;99.90;;;;;;5083431;28;20072;-51
2022/09/23 02:23:16;;;;;;;17.92;14.55;;;10.80;99.90;;;;;;5083405;28;20044;-52
2022/09/23 02:25:41;;;;;;;20.30;15.35;;;10.80;99.90;;;;;;5082977;28;20489;-50
2022/09/23 02:28:40;;;;;;;18.05;15.35;;;10.70;99.90;;;;;;5083368;28;20036;-49
2022/09/23 02:31:26;;;;;;;19.60;15.48;;;10.70;99.90;;;;;;5077859;28;20433;-50
2022/09/23 02:34:27;;;;;;;20.02;14.45;;;10.70;99.90;;;;;;5082844;28;20059;-52
2022/09/23 02:37:42;;;;;;;20.73;14.70;;;10.70;99.90;;;;;;5079005;28;20080;-51
2022/09/23 02:40:16;;;;;;;17.88;14.25;;;10.60;99.90;;;;;;5020064;28;20559;-52
2022/09/23 02:42:48;;;;;;;16.95;14.10;;;10.60;99.90;;;;;;5003842;28;20046;-51
2022/09/23 02:45:14;;;;;;;19.02;13.98;;;10.50;99.90;;;;;;5044392;28;20053;-52
2022/09/23 02:47:42;;;;;;;17.88;14.75;;;10.50;99.90;;;;;;5062924;28;20060;-49
2022/09/23 02:50:08;;;;;;;17.23;13.68;;;10.50;99.90;;;;;;5062642;28;20033;-50
2022/09/23 02:52:36;;;;;;;18.20;14.63;;;10.50;99.90;;;;;;5061382;28;20060;-51
2022/09/23 02:55:03;;;;;;;18.90;14.70;;;10.50;99.90;;;;;;5062489;28;20064;-49
2022/09/23 02:57:29;;;;;;;21.20;14.18;;;10.40;99.90;;;;;;5062494;28;20525;-50
2022/09/23 02:59:55;;;;;;;19.63;15.05;;;10.40;99.90;;;;;;5062486;28;20075;-51
2022/09/23 03:02:31;;;;;;;19.15;15.75;;;10.30;99.90;;;;;;5063044;28;20536;-50
2022/09/23 03:05:00;;;;;;;19.25;15.52;;;10.40;99.90;;;;;;5062554;28;20072;-51
2022/09/23 03:07:44;;;;;;;26.15;15.73;;;10.40;99.90;;;;;;5062439;28;20045;-51
2022/09/23 03:10:32;;;;;;;18.95;14.30;;;10.30;99.90;;;;;;5062085;28;20041;-52
2022/09/23 03:13:18;;;;;;;18.73;15.02;;;10.40;99.90;;;;;;5062212;28;20049;-52
2022/09/23 03:15:59;;;;;;;19.98;15.15;;;10.30;99.90;;;;;;5062265;28;20045;-50
2022/09/23 03:18:36;;;;;;;16.35;14.40;;;10.30;99.90;;;;;;5060933;28;20083;-52
2022/09/23 03:21:05;;;;;;;18.20;14.77;;;10.30;99.90;;;;;;5061318;28;20068;-52
2022/09/23 03:23:34;;;;;;;17.02;14.13;;;10.30;99.90;;;;;;5062583;28;20500;-51
2022/09/23 03:26:14;;;;;;;19.70;14.57;;;10.30;99.90;;;;;;5061910;28;20099;-51
2022/09/23 03:28:43;;;;;;;17.58;15.20;;;10.20;99.90;;;;;;5061849;28;20051;-53
2022/09/23 03:31:11;;;;;;;20.92;15.85;;;10.20;99.90;;;;;;5062104;28;20083;-52
2022/09/23 03:33:42;;;;;;;19.45;14.60;;;10.20;99.90;;;;;;5061967;28;20041;-51
2022/09/23 03:39:09;;;;;;;18.08;14.60;;;10.20;99.90;;;;;;5075676;28;20049;-52
2022/09/23 03:41:42;;;;;;;18.80;14.57;;;10.10;99.90;;;;;;5081625;28;20071;-51
2022/09/23 03:44:09;;;;;;;17.58;14.57;;;10.20;99.90;;;;;;5081846;28;20044;-53
2022/09/23 03:46:35;;;;;;;24.27;15.63;;;10.10;99.90;;;;;;5081403;28;20044;-54
2022/09/23 03:49:16;;;;;;;20.13;15.75;;;10.50;99.90;;;;;;5082147;28;20052;-53
2022/09/23 03:51:42;;;;;;;17.50;14.13;;;10.20;99.90;;;;;;5081378;28;20051;-50
2022/09/23 03:54:08;;;;;;;19.50;15.13;;;10.10;99.90;;;;;;5080131;28;20067;-52
2022/09/23 03:56:34;;;;;;;18.40;15.15;;;10.10;99.90;;;;;;5081035;28;20068;-50
2022/09/23 03:59:00;;;;;;;19.77;14.35;;;10.10;99.90;;;;;;5081350;28;20048;-50
2022/09/23 04:01:26;;;;;;;18.67;15.57;;;10.00;99.90;;;;;;5081547;28;20100;-51
2022/09/23 04:03:52;;;;;;;16.77;14.35;;;10.10;99.90;;;;;;5080975;28;20041;-51
2022/09/23 04:06:18;;;;;;;19.02;14.75;;;10.00;99.90;;;;;;5081929;28;20079;-53
2022/09/23 04:08:43;;;;;;;19.13;15.25;;;10.00;99.90;;;;;;5081236;28;20041;-50
2022/09/23 04:11:10;;;;;;;18.38;14.25;;;10.00;99.90;;;;;;5081073;28;20076;-53
2022/09/23 04:13:35;;;;;;;21.35;16.00;;;10.00;99.90;;;;;;5081362;28;20041;-51
2022/09/23 04:16:01;;;;;;;19.63;15.00;;;10.00;99.90;;;;;;5081113;28;20082;-52
2022/09/23 04:18:27;;;;;;;20.23;15.60;;;10.00;99.90;;;;;;5081291;28;20037;-53
2022/09/23 04:20:57;;;;;;;19.10;15.70;;;9.90;99.90;;;;;;5080617;28;20052;-53
2022/09/23 04:23:27;;;;;;;19.50;14.73;;;9.90;99.90;;;;;;5081392;28;20033;-52
2022/09/23 04:25:53;;;;;;;18.90;14.93;;;9.90;99.90;;;;;;5080811;28;20068;-51
2022/09/23 04:28:19;;;;;;;20.10;15.07;;;9.90;99.90;;;;;;5079820;28;20045;-51
2022/09/23 04:30:45;;;;;;;17.83;15.18;;;9.90;99.90;;;;;;5080717;28;20051;-50
2022/09/23 04:33:11;;;;;;;18.77;15.70;;;9.80;99.90;;;;;;5080572;28;20056;-52
2022/09/23 04:35:38;;;;;;;17.92;15.15;;;9.80;99.90;;;;;;5079552;28;20079;-51
2022/09/23 04:38:05;;;;;;;18.20;15.27;;;9.80;99.90;;;;;;5080591;28;20109;-52
2022/09/23 04:40:30;;;;;;;18.85;16.15;;;9.80;99.90;;;;;;5081191;28;20072;-52
2022/09/23 04:42:56;;;;;;;20.52;15.70;;;9.90;99.90;;;;;;5080442;28;20040;-52
2022/09/23 04:45:22;;;;;;;26.50;16.70;;;9.80;99.90;;;;;;5081045;28;20051;-51
2022/09/23 04:47:48;;;;;;;19.52;16.05;;;9.80;99.90;;;;;;5080526;28;20052;-51
2022/09/23 04:50:14;;;;;;;19.00;16.05;;;9.80;99.90;;;;;;5080734;28;20049;-50
2022/09/23 04:52:39;;;;;;;19.38;16.05;;;9.90;99.90;;;;;;5081057;28;20051;-53
2022/09/23 04:55:06;;;;;;;17.55;15.63;;;9.80;99.90;;;;;;5079587;28;20579;-54
2022/09/23 04:57:33;;;;;;;18.65;15.80;;;9.80;99.90;;;;;;5079823;28;20059;-51
2022/09/23 04:59:59;;;;;;;20.83;16.27;;;9.80;99.90;;;;;;5074535;28;20056;-49
2022/09/23 05:02:24;;;;;;;19.15;16.45;;;9.70;99.90;;;;;;5075690;28;20045;-53
2022/09/23 05:04:50;;;;;;;18.95;15.75;;;9.80;99.90;;;;;;5075721;28;20041;-51
2022/09/23 05:07:17;;;;;;;20.92;15.60;;;10.40;99.90;;;;;;5074712;28;20036;-51
2022/09/23 05:09:44;;;;;;;18.48;16.20;;;9.80;99.90;;;;;;5075515;28;20535;-52
2022/09/23 05:12:10;;;;;;;17.55;15.20;;;9.90;99.90;;;;;;5074617;28;20059;-52
2022/09/23 05:14:37;;;;;;;21.30;15.70;;;9.70;99.90;;;;;;5075426;28;20067;-53
2022/09/23 05:17:04;;;;;;;21.45;16.70;;;9.80;99.90;;;;;;5073119;28;20044;-52
2022/09/23 05:19:29;;;;;;;19.42;16.00;;;9.70;99.90;;;;;;5075732;28;20070;-50
2022/09/23 05:21:55;;;;;;;19.08;16.00;;;9.70;99.90;;;;;;5074033;28;20045;-50
2022/09/23 05:24:23;;;;;;;18.77;16.15;;;9.80;99.90;;;;;;5074987;28;20040;-53
2022/09/23 05:26:49;;;;;;;20.38;16.65;;;9.80;99.90;;;;;;5074892;28;20067;-51
2022/09/23 05:29:14;;;;;;;20.67;16.15;;;9.80;99.90;;;;;;5071339;28;20044;-52
2022/09/23 05:31:40;;;;;;;21.08;15.43;;;9.80;99.90;;;;;;5075698;28;20059;-52
2022/09/23 05:34:06;;;;;;;17.02;15.05;;;9.80;99.90;;;;;;5073727;28;20084;-52
2022/09/23 05:36:34;;;;;;;18.55;16.05;;;9.90;99.90;;;;;;5075450;28;20104;-52
2022/09/23 05:39:00;;;;;;;17.60;14.60;;;9.90;99.90;;;;;;5074633;28;20086;-50
2022/09/23 05:41:26;;;;;;;19.35;16.05;;;9.90;99.90;;;;;;5074399;28;20082;-53
2022/09/23 05:43:53;;;;;;;20.20;16.33;;;9.90;99.90;;;;;;5078219;28;20101;-52
2022/09/23 05:46:22;;;;;;;19.65;16.60;;;10.00;99.90;;;;;;5078161;28;20080;-53
2022/09/23 05:48:48;;;;;;;18.90;15.98;;;10.00;99.90;;;;;;5079466;28;20056;-52
2022/09/23 05:51:19;;;;;;;20.00;16.35;;;10.00;99.90;;;;;;5078545;28;20049;-50
2022/09/23 05:53:45;;;;;;;20.08;15.93;;;9.90;99.90;;;;;;5079313;28;20072;-54
2022/09/23 05:56:16;;;;;;;20.00;16.83;;;10.00;99.90;;;;;;5078496;28;20255;-52
2022/09/23 05:58:42;;;;;;;23.73;16.10;;;10.00;99.90;;;;;;5077713;28;20061;-50
2022/09/23 06:01:13;;;;;;;24.23;16.13;;;10.00;99.90;;;;;;5078936;28;20044;-52
2022/09/23 06:03:39;;;;;;;22.17;16.60;;;10.00;99.90;;;;;;5077784;28;20052;-52
2022/09/23 06:06:05;;;;;;;19.40;17.15;;;10.10;99.90;;;;;;5079270;28;20068;-49
2022/09/23 06:08:33;;;;;;;20.17;16.35;;;10.10;99.90;;;;;;5078305;28;20101;-49
2022/09/23 06:11:06;;;;;;;20.38;17.60;;;10.10;99.90;;;;;;5078314;28;20139;-52
2022/09/23 06:13:38;;;;;;;20.25;16.55;;;10.00;99.90;;;;;;5078724;28;20044;-52
2022/09/23 06:16:13;;;;;;;17.77;15.73;;;10.10;99.90;;;;;;5078012;28;20048;-52
2022/09/23 06:18:44;;;;;;;19.65;15.88;;;10.10;99.90;;;;;;5079152;28;20040;-52
2022/09/23 06:21:15;;;;;;;20.38;17.15;;;10.20;99.90;;;;;;5077943;28;20052;-52
2022/09/23 06:23:41;;;;;;;21.48;16.67;;;10.20;99.90;;;;;;5078446;28;20074;-52
2022/09/23 06:26:09;;;;;;;18.30;16.40;;;10.30;99.90;;;;;;5076775;28;20059;-50
2022/09/23 06:28:37;;;;;;;19.95;16.83;;;10.20;99.90;;;;;;5077762;28;20036;-52
2022/09/23 06:31:07;;;;;;;20.70;17.35;;;10.20;99.90;;;;;;5078521;28;20048;-52
2022/09/23 06:33:33;;;;;;;20.52;16.52;;;10.30;99.90;;;;;;5077793;28;20452;-52
2022/09/23 06:36:01;;;;;;;19.80;17.05;;;10.30;99.90;;;;;;5078247;28;20063;-52
2022/09/23 06:38:28;;;;;;;22.23;16.85;;;10.40;99.90;;;;;;5077616;28;20587;-51
2022/09/23 06:40:55;;;;;;;24.33;17.75;;;10.40;99.90;;;;;;5077997;28;20569;-53
2022/09/23 06:43:22;;;;;;;19.60;17.08;;;10.50;99.90;;;;;;5078208;28;20044;-52
2022/09/23 06:45:55;;;;;;;18.23;15.50;;;10.50;99.90;;;;;;5077625;28;20124;-51
2022/09/23 06:48:23;;;;;;;20.38;17.17;;;10.50;99.90;;;;;;5078393;28;20052;-52
2022/09/23 06:50:49;;;;;;;18.92;16.90;;;10.60;99.90;;;;;;5077257;28;20475;-51
2022/09/23 06:53:16;;;;;;;19.90;16.42;;;10.60;99.90;;;;;;5076770;28;20059;-52
2022/09/23 06:55:42;;;;;;;19.70;16.48;;;10.60;99.90;;;;;;5077285;28;20060;-52
2022/09/23 06:58:08;;;;;;;19.42;16.85;;;10.70;99.90;;;;;;5077086;28;20048;-53
2022/09/23 07:00:37;;;;;;;20.30;17.58;;;10.70;99.90;;;;;;5077190;28;20048;-49
2022/09/23 07:03:07;;;;;;;19.13;16.60;;;10.70;99.90;;;;;;5076723;28;20057;-49
2022/09/23 07:05:33;;;;;;;19.38;17.38;;;10.60;99.90;;;;;;5076561;28;20052;-51
2022/09/23 07:07:59;;;;;;;20.50;18.40;;;10.60;99.90;;;;;;5076039;28;20409;-51
2022/09/23 07:10:28;;;;;;;19.88;16.98;;;10.60;99.90;;;;;;5077095;28;20070;-49
2022/09/23 07:12:54;;;;;;;21.42;18.17;;;10.60;99.90;;;;;;5076919;28;20400;-51
2022/09/23 07:15:20;;;;;;;21.02;17.58;;;10.60;99.90;;;;;;5077407;28;20301;-51
2022/09/23 07:17:45;;;;;;;19.92;17.23;;;10.50;99.90;;;;;;5077142;28;20449;-52
2022/09/23 07:20:11;;;;;;;21.08;18.63;;;10.70;99.90;;;;;;5076889;28;20048;-51
2022/09/23 07:22:37;;;;;;;21.85;18.25;;;10.80;99.90;;;;;;5075788;28;20109;-50
2022/09/23 07:25:05;;;;;;;22.02;19.25;;;10.80;99.90;;;;;;5076550;28;20037;-52
2022/09/23 07:27:32;;;;;;;20.63;17.30;;;10.80;99.90;;;;;;5077612;28;20047;-53
2022/09/23 07:29:57;;;;;;;22.98;18.50;;;10.90;99.90;;;;;;5076338;28;20044;-50
2022/09/23 07:32:24;;;;;;;20.63;18.52;;;11.00;99.90;;;;;;5076741;28;20134;-51
2022/09/23 07:34:50;;;;;;;22.75;17.20;;;11.00;99.90;;;;;;5058778;28;20052;-52
2022/09/23 07:37:16;;;;;;;21.33;17.13;;;11.10;99.90;;;;;;5076451;28;20048;-52
2022/09/23 07:39:43;;;;;;;21.50;16.80;;;11.20;99.90;;;;;;5075459;28;20040;-50
2022/09/23 07:42:10;;;;;;;19.02;17.00;;;11.30;99.90;;;;;;5076201;28;20044;-51
2022/09/23 07:44:36;;;;;;;20.58;17.80;;;11.30;99.90;;;;;;5076049;28;20044;-51
2022/09/23 07:47:02;;;;;;;19.52;16.67;;;11.40;99.90;;;;;;5076010;28;20044;-49
2022/09/23 07:49:28;;;;;;;21.17;16.77;;;11.40;99.90;;;;;;5076841;28;20054;-49
2022/09/23 07:51:54;;;;;;;19.77;16.25;;;11.40;99.90;;;;;;5075161;28;20052;-51
2022/09/23 07:54:20;;;;;;;18.95;16.27;;;11.50;99.90;;;;;;5075649;28;20044;-51
2022/09/23 07:56:46;;;;;;;19.70;17.25;;;11.50;99.90;;;;;;5075596;28;20064;-50
2022/09/23 07:59:17;;;;;;;19.48;16.92;;;11.50;99.90;;;;;;5075204;28;20108;-50
2022/09/23 08:01:53;;;;;;;20.58;16.88;;;11.60;99.90;;;;;;5076891;28;20051;-51
2022/09/23 08:04:28;;;;;;;21.80;17.70;;;11.60;99.90;;;;;;5075740;28;20127;-50
2022/09/23 08:06:58;;;;;;;19.05;16.40;;;11.60;99.90;;;;;;5075621;28;20095;-52
2022/09/23 08:09:30;;;;;;;19.65;16.77;;;11.60;99.90;;;;;;5076000;28;20607;-54
2022/09/23 08:11:56;;;;;;;22.63;17.48;;;11.70;99.90;;;;;;5075241;28;20044;-51
2022/09/23 08:14:22;;;;;;;19.98;17.15;;;11.80;99.90;;;;;;5076733;28;20040;-52
2022/09/23 08:16:48;;;;;;;19.30;16.67;;;11.80;99.90;;;;;;5075202;28;20075;-49
2022/09/23 08:19:14;;;;;;;21.23;17.75;;;11.80;99.90;;;;;;5076482;28;20059;-51
2022/09/23 08:21:41;;;;;;;21.33;16.83;;;11.80;99.90;;;;;;5076061;28;20070;-50
2022/09/23 08:24:15;;;;;;;18.55;15.60;;;12.00;99.90;;;;;;5074189;28;20084;-48
2022/09/23 08:26:41;;;;;;;18.80;16.65;;;12.00;99.90;;;;;;5076265;28;20459;-48
2022/09/23 08:29:10;;;;;;;19.15;17.05;;;12.10;99.90;;;;;;5075530;28;20423;-50
2022/09/23 08:31:35;;;;;;;21.75;17.10;;;12.20;99.90;;;;;;5076830;28;20071;-49
2022/09/23 08:34:01;;;;;;;17.40;15.35;;;12.30;99.90;;;;;;5075318;28;20048;-50
2022/09/23 08:36:27;;;;;;;17.60;15.50;;;12.40;99.90;;;;;;5076356;28;20515;-51
2022/09/23 08:38:54;;;;;;;18.00;15.38;;;12.50;99.90;;;;;;5075541;28;20099;-52
2022/09/23 08:41:38;;;;;;;17.13;15.25;;;12.60;99.90;;;;;;5075510;28;20076;-49
2022/09/23 08:44:12;;;;;;;17.90;15.48;;;12.50;99.90;;;;;;5075897;28;20059;-50
2022/09/23 08:46:45;;;;;;;17.92;13.90;;;12.70;99.90;;;;;;5078255;28;20090;-48
2022/09/23 08:49:22;;;;;;;17.13;14.75;;;12.70;99.90;;;;;;5078875;28;20052;-48
2022/09/23 08:51:50;;;;;;;18.17;15.18;;;12.90;99.90;;;;;;5079337;28;20036;-51
2022/09/23 08:54:17;;;;;;;20.10;14.68;;;12.80;99.90;;;;;;5079150;28;20133;-49
2022/09/23 08:56:47;;;;;;;19.13;15.57;;;12.90;99.90;;;;;;5079581;28;20107;-51
2022/09/23 08:59:27;;;;;;;17.98;14.20;;;12.90;99.90;;;;;;5078563;28;20078;-50
2022/09/23 09:01:59;;;;;;;18.60;13.95;;;12.90;99.90;;;;;;5080164;28;20051;-51
2022/09/23 09:04:34;;;;;;;;;;;13.10;99.90;;;;;;5079985;28;20064;-51
2022/09/23 09:07:06;;;;;;;19.60;13.85;;;13.10;99.90;;;;;;5079353;28;19959;-52
2022/09/23 09:09:53;;;;;;;17.50;13.55;;;13.20;99.90;;;;;;5078861;28;20424;-49
2022/09/23 09:12:45;;;;;;;18.48;13.45;;;13.20;99.90;;;;;;5078572;28;20480;-50
2022/09/23 09:15:17;;;;;;;15.52;12.45;;;13.30;99.90;;;;;;5079557;28;20067;-48
2022/09/23 09:18:03;;;;;;;16.67;13.32;;;13.40;99.90;;;;;;5080331;28;20047;-50
2022/09/23 09:20:36;;;;;;;17.63;11.95;;;13.40;99.90;;;;;;5082843;28;20192;-51
2022/09/23 09:23:06;;;;;;;15.25;12.40;;;13.50;99.90;;;;;;5084045;28;20037;-49
2022/09/23 09:25:40;;;;;;;18.55;12.30;;;13.50;99.90;;;;;;5082508;28;20033;-51
2022/09/23 09:28:26;;;;;;;16.20;12.50;;;13.60;99.90;;;;;;5082857;28;20100;-49
2022/09/23 09:30:58;;;;;;;16.30;11.70;;;13.70;99.90;;;;;;5082674;28;20050;-51
2022/09/23 09:33:31;;;;;;;15.82;12.55;;;13.70;99.90;;;;;;5082237;28;20068;-51
2022/09/23 09:36:07;;;;;;;17.80;12.68;;;13.80;99.90;;;;;;5083455;28;20080;-51
2022/09/23 09:38:34;;;;;;;17.23;12.93;;;13.80;99.90;;;;;;5081866;28;20037;-52
2022/09/23 09:41:12;;;;;;;17.02;12.00;;;13.90;99.90;;;;;;5081972;28;20045;-50
2022/09/23 09:43:40;;;;;;;16.27;11.88;;;13.90;99.90;;;;;;5082332;28;20093;-48
2022/09/23 09:46:24;;;;;;;15.85;11.77;;;14.00;99.90;;;;;;5082319;28;20093;-49
2022/09/23 09:48:53;;;;;;;17.65;13.13;;;14.00;99.90;;;;;;5083523;28;20049;-48
2022/09/23 09:51:21;;;;;;;17.23;11.75;;;14.10;99.90;;;;;;5081912;28;20049;-51
2022/09/23 09:53:50;;;;;;;15.05;12.02;;;14.10;99.90;;;;;;5081994;28;20036;-52
2022/09/23 09:56:21;;;;;;;15.52;11.18;;;14.20;99.90;;;;;;5081510;28;20057;-50
2022/09/23 09:58:58;;;;;;;16.65;11.27;;;14.10;99.90;;;;;;5081342;28;20040;-50
2022/09/23 10:01:32;;;;;;;15.00;11.93;;;14.10;99.90;;;;;;5082532;28;20511;-52
2022/09/23 10:04:18;;;;;;;15.10;11.52;;;14.10;99.90;;;;;;5080254;28;20080;-51
2022/09/23 10:07:04;;;;;;;15.77;11.63;;;14.20;99.90;;;;;;5081893;28;20449;-49
2022/09/23 10:09:38;;;;;;;19.48;11.63;;;14.10;99.90;;;;;;5082164;28;20458;-50
2022/09/23 10:12:18;;;;;;;22.58;12.48;;;14.10;99.90;;;;;;5081407;28;20059;-52
2022/09/23 10:14:45;;;;;;;18.70;11.90;;;14.20;99.90;;;;;;5082171;28;20053;-49
2022/09/23 10:17:19;;;;;;;15.65;11.73;;;14.10;99.90;;;;;;5081110;28;20033;-49
2022/09/23 10:19:48;;;;;;;16.52;11.52;;;14.30;99.90;;;;;;5082158;28;20040;-51
2022/09/23 10:22:28;;;;;;;20.02;12.68;;;14.30;99.90;;;;;;5082091;28;20044;-50
2022/09/23 10:24:59;;;;;;;17.30;12.30;;;14.40;99.90;;;;;;5081675;28;20048;-50
2022/09/23 10:27:35;;;;;;;17.60;12.05;;;14.40;99.90;;;;;;5081818;28;20100;-50
2022/09/23 10:30:20;;;;;;;16.90;11.77;;;14.40;99.90;;;;;;5081220;28;20044;-51
2022/09/23 10:32:46;;;;;;;16.27;11.63;;;14.50;99.90;;;;;;5081646;28;20043;-52
2022/09/23 10:35:17;;;;;;;18.48;12.70;;;14.70;99.90;;;;;;5081921;28;20075;-50
2022/09/23 10:37:50;;;;;;;19.10;12.97;;;14.70;99.90;;;;;;5076668;28;20048;-51
2022/09/23 10:46:37;;;;;;;18.67;12.15;;;14.70;99.90;;;;;;5081111;28;20066;-50
2022/09/23 10:49:20;;;;;;;18.40;12.07;;;14.80;99.90;;;;;;5082287;28;20051;-50
2022/09/23 10:51:50;;;;;;;16.83;13.20;;;14.90;99.90;;;;;;5081575;28;20048;-49
2022/09/23 10:54:40;;;;;;;17.83;13.30;;;14.90;99.90;;;;;;5079408;28;20052;-50
2022/09/23 11:00:40;;;;;;;17.70;12.73;;;15.00;99.90;;;;;;5080263;28;20047;-49
2022/09/23 11:03:34;;;;;;;15.57;12.50;;;15.00;99.90;;;;;;5077253;28;20393;-52
2022/09/23 11:06:28;;;;;;;17.50;13.65;;;15.00;99.90;;;;;;5080869;28;20071;-47
2022/09/23 11:09:21;;;;;;;19.52;13.05;;;15.10;99.90;;;;;;5078771;28;20040;-52
2022/09/23 11:12:07;;;;;;;18.73;13.68;;;15.00;99.90;;;;;;5077634;28;20039;-51
2022/09/23 11:15:10;;;;;;;18.80;13.90;;;15.00;99.90;;;;;;5079519;28;20041;-49
2022/09/23 11:17:55;;;;;;;19.08;13.32;;;15.10;99.90;;;;;;5078773;28;20045;-48
2022/09/23 11:20:36;;;;;;;19.88;13.40;;;15.00;99.90;;;;;;5069749;28;20053;-49
2022/09/23 11:23:26;;;;;;;18.83;13.45;;;15.00;99.90;;;;;;5072162;28;20043;-51
2022/09/23 11:26:00;;;;;;;19.63;14.20;;;15.00;99.90;;;;;;5072850;28;20090;-48
2022/09/23 11:28:36;;;;;;;26.00;15.45;;;15.00;99.90;;;;;;5079852;28;20036;-51
2022/09/23 11:31:23;;;;;;;20.55;14.35;;;15.00;99.90;;;;;;5080626;28;20046;-48
2022/09/23 11:33:51;;;;;;;20.70;13.52;;;15.00;99.90;;;;;;5079564;28;20044;-48
2022/09/23 11:36:31;;;;;;;19.10;14.05;;;15.10;99.90;;;;;;5080568;28;20063;-49
2022/09/23 11:39:01;;;;;;;18.95;14.93;;;15.10;99.90;;;;;;5077927;28;20508;-50
2022/09/23 11:41:31;;;;;;;19.75;14.20;;;15.20;99.90;;;;;;5079054;28;20048;-49
2022/09/23 11:44:27;;;;;;;21.25;15.80;;;15.30;99.90;;;;;;5080461;28;20051;-50
2022/09/23 11:47:03;;;;;;;18.17;15.88;;;15.20;99.90;;;;;;5077505;28;20497;-49
2022/09/23 11:49:41;;;;;;;19.85;15.10;;;15.30;99.90;;;;;;5080073;28;20040;-49
2022/09/23 11:52:20;;;;;;;21.95;15.43;;;15.30;99.90;;;;;;5080073;28;20040;-50
2022/09/23 11:55:03;;;;;;;17.98;14.85;;;15.30;99.90;;;;;;5079426;28;20044;-48
2022/09/23 11:57:40;;;;;;;19.02;15.05;;;15.40;99.90;;;;;;5080540;28;20076;-49
2022/09/23 12:00:15;;;;;;;21.40;14.88;;;15.30;99.90;;;;;;5079957;28;20037;-50
2022/09/23 12:03:00;;;;;;;19.95;16.02;;;15.40;99.90;;;;;;5079565;28;20106;-49
2022/09/23 12:05:31;;;;;;;22.05;16.75;;;15.40;99.90;;;;;;5080211;28;20047;-49
2022/09/23 12:08:01;;;;;;;21.30;16.48;;;15.40;99.90;;;;;;5079560;28;20048;-49
2022/09/23 12:10:56;;;;;;;26.45;16.85;;;15.30;99.90;;;;;;5080627;28;20052;-50
2022/09/23 12:13:32;;;;;;;20.75;16.42;;;15.40;99.90;;;;;;5080059;28;20048;-51
2022/09/23 12:16:18;;;;;;;21.08;16.33;;;15.40;99.90;;;;;;5079485;28;20044;-49
2022/09/23 12:18:52;;;;;;;23.02;17.75;;;15.40;99.90;;;;;;5078212;28;20166;-50
2022/09/23 12:21:24;;;;;;;22.33;18.17;;;15.40;99.90;;;;;;5068514;28;20036;-51
2022/09/23 12:24:05;;;;;;;;;;;15.40;99.90;;;;;;5071464;28;20070;-49
2022/09/23 12:26:32;;;;;;;21.05;17.23;;;15.40;99.90;;;;;;5079143;28;19924;-49
2022/09/23 12:29:02;;;;;;;25.40;15.95;;;15.40;99.90;;;;;;5078590;28;20041;-49
2022/09/23 12:31:30;;;;;;;21.77;17.75;;;15.50;99.90;;;;;;5073088;28;20048;-50
2022/09/23 12:33:59;;;;;;;21.70;17.17;;;15.40;99.90;;;;;;5076231;28;20080;-51
2022/09/23 12:36:34;;;;;;;20.58;17.50;;;15.50;99.90;;;;;;5079434;28;20029;-51
2022/09/23 12:39:38;;;;;;;22.55;18.58;;;15.40;99.90;;;;;;5075707;28;20044;-52
2022/09/23 12:42:18;;;;;;;23.85;16.13;;;15.50;99.90;;;;;;5030935;28;20075;-50
2022/09/23 12:44:46;;;;;;;22.98;17.35;;;15.40;99.90;;;;;;5031792;28;20101;-51
2022/09/23 12:47:24;;;;;;;22.25;17.55;;;15.40;99.90;;;;;;5055878;28;20525;-49
2022/09/23 12:49:52;;;;;;;23.13;18.25;;;15.40;99.90;;;;;;5076632;28;20102;-50
2022/09/23 12:52:17;;;;;;;22.95;18.55;;;15.40;99.90;;;;;;5079397;28;20618;-50
2022/09/23 12:54:45;;;;;;;23.17;18.23;;;15.30;99.90;;;;;;5078857;28;20940;-52
2022/09/23 12:57:12;;;;;;;22.55;16.67;;;15.40;99.90;;;;;;5079568;28;20056;-50
2022/09/23 12:59:50;;;;;;;25.27;18.85;;;15.30;99.90;;;;;;5079128;28;20040;-51
2022/09/23 13:02:39;;;;;;;20.60;17.17;;;15.30;99.90;;;;;;5079408;28;20092;-49
2022/09/23 13:08:13;;;;;;;23.33;18.25;;;15.40;99.90;;;;;;5077095;28;20048;-53
2022/09/23 13:10:48;;;;;;;23.80;18.83;;;15.40;99.90;;;;;;5079706;28;20075;-50
2022/09/23 13:13:42;;;;;;;24.52;18.17;;;15.40;99.90;;;;;;5078395;28;20080;-50